sensor_id;sensor_type;location;lat;lon;timestamp;pressure;altitude;pressure_sealevel;temperature;humidity
78431;BME280;67727;50.236;22.452;2023-12-14T00:01:17;98338.84;;;1.95;88.98
78431;BME280;67727;50.236;22.452;2023-12-14T00:03:43;98334.21;;;1.91;89.22
78431;BME280;67727;50.236;22.452;2023-12-14T00:06:13;98337.46;;;1.88;89.40
78431;BME280;67727;50.236;22.452;2023-12-14T00:08:39;98337.83;;;1.88;89.43
78431;BME280;67727;50.236;22.452;2023-12-14T00:11:07;98337.33;;;1.89;89.75
78431;BME280;67727;50.236;22.452;2023-12-14T00:13:33;98338.88;;;1.91;89.81
78431;BME280;67727;50.236;22.452;2023-12-14T00:16:00;98336.88;;;1.93;89.72
78431;BME280;67727;50.236;22.452;2023-12-14T00:18:27;98338.42;;;1.95;89.54
78431;BME280;67727;50.236;22.452;2023-12-14T00:20:53;98338.38;;;1.95;89.53
78431;BME280;67727;50.236;22.452;2023-12-14T00:23:23;98346.12;;;1.96;89.63
78431;BME280;67727;50.236;22.452;2023-12-14T00:25:49;98346.45;;;1.96;89.79
78431;BME280;67727;50.236;22.452;2023-12-14T00:28:15;98343.05;;;1.93;89.40
78431;BME280;67727;50.236;22.452;2023-12-14T00:30:41;98343.29;;;1.91;89.55
78431;BME280;67727;50.236;22.452;2023-12-14T00:33:07;98344.64;;;1.89;89.47
78431;BME280;67727;50.236;22.452;2023-12-14T00:35:33;98350.78;;;1.87;89.55
78431;BME280;67727;50.236;22.452;2023-12-14T00:38:00;98355.00;;;1.87;89.87
78431;BME280;67727;50.236;22.452;2023-12-14T00:40:26;98361.83;;;1.86;89.41
78431;BME280;67727;50.236;22.452;2023-12-14T00:42:52;98364.77;;;1.88;89.49
78431;BME280;67727;50.236;22.452;2023-12-14T00:45:18;98367.52;;;1.90;89.87
78431;BME280;67727;50.236;22.452;2023-12-14T00:47:44;98370.84;;;1.94;89.62
78431;BME280;67727;50.236;22.452;2023-12-14T00:50:10;98373.20;;;1.98;89.65
78431;BME280;67727;50.236;22.452;2023-12-14T00:52:36;98374.36;;;1.99;89.66
78431;BME280;67727;50.236;22.452;2023-12-14T00:55:03;98377.19;;;1.97;89.37
78431;BME280;67727;50.236;22.452;2023-12-14T00:57:29;98382.83;;;1.93;89.38
78431;BME280;67727;50.236;22.452;2023-12-14T00:59:55;98383.94;;;1.88;89.56
78431;BME280;67727;50.236;22.452;2023-12-14T01:02:22;98382.75;;;1.86;89.56
78431;BME280;67727;50.236;22.452;2023-12-14T01:04:48;98380.33;;;1.84;89.60
78431;BME280;67727;50.236;22.452;2023-12-14T01:07:14;98378.58;;;1.86;89.79
78431;BME280;67727;50.236;22.452;2023-12-14T01:09:40;98381.52;;;1.90;89.68
78431;BME280;67727;50.236;22.452;2023-12-14T01:12:06;98384.91;;;1.93;89.62
78431;BME280;67727;50.236;22.452;2023-12-14T01:14:32;98389.14;;;1.98;90.07
78431;BME280;67727;50.236;22.452;2023-12-14T01:16:58;98388.84;;;1.99;89.90
78431;BME280;67727;50.236;22.452;2023-12-14T01:19:24;98389.02;;;2.01;89.74
78431;BME280;67727;50.236;22.452;2023-12-14T01:21:51;98386.30;;;1.98;89.56
78431;BME280;67727;50.236;22.452;2023-12-14T01:24:17;98384.67;;;1.93;89.30
78431;BME280;67727;50.236;22.452;2023-12-14T01:26:43;98385.66;;;1.88;89.67
78431;BME280;67727;50.236;22.452;2023-12-14T01:29:10;98386.15;;;1.83;89.62
78431;BME280;67727;50.236;22.452;2023-12-14T01:31:37;98385.98;;;1.82;89.69
78431;BME280;67727;50.236;22.452;2023-12-14T01:34:03;98384.77;;;1.80;89.74
78431;BME280;67727;50.236;22.452;2023-12-14T01:36:29;98383.63;;;1.79;89.92
78431;BME280;67727;50.236;22.452;2023-12-14T01:38:55;98383.16;;;1.79;89.93
78431;BME280;67727;50.236;22.452;2023-12-14T01:41:22;98379.66;;;1.79;90.12
78431;BME280;67727;50.236;22.452;2023-12-14T01:43:48;98379.99;;;1.79;90.10
78431;BME280;67727;50.236;22.452;2023-12-14T01:46:14;98380.88;;;1.80;90.11
78431;BME280;67727;50.236;22.452;2023-12-14T01:48:42;98381.35;;;1.81;89.88
78431;BME280;67727;50.236;22.452;2023-12-14T01:51:08;98386.08;;;1.81;90.07
78431;BME280;67727;50.236;22.452;2023-12-14T01:53:34;98388.58;;;1.79;90.12
78431;BME280;67727;50.236;22.452;2023-12-14T01:56:00;98390.41;;;1.76;90.08
78431;BME280;67727;50.236;22.452;2023-12-14T01:58:26;98387.67;;;1.72;90.01
78431;BME280;67727;50.236;22.452;2023-12-14T02:01:21;98390.73;;;1.68;90.38
78431;BME280;67727;50.236;22.452;2023-12-14T02:03:50;98395.52;;;1.65;90.36
78431;BME280;67727;50.236;22.452;2023-12-14T02:06:16;98396.40;;;1.65;90.18
78431;BME280;67727;50.236;22.452;2023-12-14T02:08:42;98395.73;;;1.66;90.57
78431;BME280;67727;50.236;22.452;2023-12-14T02:11:08;98398.16;;;1.67;90.43
78431;BME280;67727;50.236;22.452;2023-12-14T02:13:35;98402.66;;;1.67;90.83
78431;BME280;67727;50.236;22.452;2023-12-14T02:16:01;98403.29;;;1.67;90.51
78431;BME280;67727;50.236;22.452;2023-12-14T02:18:27;98407.17;;;1.67;90.46
78431;BME280;67727;50.236;22.452;2023-12-14T02:20:53;98411.80;;;1.67;90.72
78431;BME280;67727;50.236;22.452;2023-12-14T02:23:19;98413.64;;;1.70;90.65
78431;BME280;67727;50.236;22.452;2023-12-14T02:25:45;98412.56;;;1.72;90.95
78431;BME280;67727;50.236;22.452;2023-12-14T02:28:11;98413.71;;;1.73;90.76
78431;BME280;67727;50.236;22.452;2023-12-14T02:30:37;98417.77;;;1.72;90.63
78431;BME280;67727;50.236;22.452;2023-12-14T02:33:03;98420.27;;;1.73;90.64
78431;BME280;67727;50.236;22.452;2023-12-14T02:35:29;98421.16;;;1.73;90.71
78431;BME280;67727;50.236;22.452;2023-12-14T02:37:55;98419.35;;;1.72;90.65
78431;BME280;67727;50.236;22.452;2023-12-14T02:40:21;98419.10;;;1.73;90.26
78431;BME280;67727;50.236;22.452;2023-12-14T02:42:47;98420.11;;;1.73;90.60
78431;BME280;67727;50.236;22.452;2023-12-14T02:45:14;98425.15;;;1.73;90.44
78431;BME280;67727;50.236;22.452;2023-12-14T02:47:40;98428.34;;;1.76;90.71
78431;BME280;67727;50.236;22.452;2023-12-14T02:50:06;98433.00;;;1.80;90.89
78431;BME280;67727;50.236;22.452;2023-12-14T02:52:32;98429.59;;;1.83;90.54
78431;BME280;67727;50.236;22.452;2023-12-14T02:54:58;98422.23;;;1.83;90.37
78431;BME280;67727;50.236;22.452;2023-12-14T02:57:25;98418.70;;;1.80;90.17
78431;BME280;67727;50.236;22.452;2023-12-14T02:59:51;98418.70;;;1.75;90.33
78431;BME280;67727;50.236;22.452;2023-12-14T03:02:17;98418.67;;;1.70;90.09
78431;BME280;67727;50.236;22.452;2023-12-14T03:04:43;98422.86;;;1.67;90.27
78431;BME280;67727;50.236;22.452;2023-12-14T03:07:09;98431.20;;;1.67;90.32
78431;BME280;67727;50.236;22.452;2023-12-14T03:09:39;98429.96;;;1.69;90.63
78431;BME280;67727;50.236;22.452;2023-12-14T03:12:07;98431.50;;;1.71;90.42
78431;BME280;67727;50.236;22.452;2023-12-14T03:14:33;98433.82;;;1.72;90.29
78431;BME280;67727;50.236;22.452;2023-12-14T03:16:59;98431.05;;;1.72;90.61
78431;BME280;67727;50.236;22.452;2023-12-14T03:19:25;98427.23;;;1.72;90.35
78431;BME280;67727;50.236;22.452;2023-12-14T03:21:51;98424.38;;;1.69;90.37
78431;BME280;67727;50.236;22.452;2023-12-14T03:24:18;98423.17;;;1.65;90.31
78431;BME280;67727;50.236;22.452;2023-12-14T03:26:44;98424.55;;;1.62;90.49
78431;BME280;67727;50.236;22.452;2023-12-14T03:29:10;98433.02;;;1.59;90.86
78431;BME280;67727;50.236;22.452;2023-12-14T03:31:36;98438.94;;;1.57;90.59
78431;BME280;67727;50.236;22.452;2023-12-14T03:34:02;98440.34;;;1.55;90.87
78431;BME280;67727;50.236;22.452;2023-12-14T03:36:28;98438.89;;;1.52;90.94
78431;BME280;67727;50.236;22.452;2023-12-14T03:38:55;98432.44;;;1.49;90.95
78431;BME280;67727;50.236;22.452;2023-12-14T03:41:21;98431.95;;;1.49;91.10
78431;BME280;67727;50.236;22.452;2023-12-14T03:43:47;98433.58;;;1.46;90.83
78431;BME280;67727;50.236;22.452;2023-12-14T03:46:13;98435.99;;;1.45;90.84
78431;BME280;67727;50.236;22.452;2023-12-14T03:48:39;98443.52;;;1.46;90.93
78431;BME280;67727;50.236;22.452;2023-12-14T03:51:06;98443.40;;;1.47;91.07
78431;BME280;67727;50.236;22.452;2023-12-14T03:53:32;98444.91;;;1.50;91.05
78431;BME280;67727;50.236;22.452;2023-12-14T03:55:58;98442.66;;;1.49;91.35
78431;BME280;67727;50.236;22.452;2023-12-14T03:58:24;98444.29;;;1.50;91.10
78431;BME280;67727;50.236;22.452;2023-12-14T04:00:50;98445.23;;;1.50;91.02
78431;BME280;67727;50.236;22.452;2023-12-14T04:03:17;98449.86;;;1.49;90.77
78431;BME280;67727;50.236;22.452;2023-12-14T04:05:43;98453.84;;;1.47;91.16
78431;BME280;67727;50.236;22.452;2023-12-14T04:08:10;98461.25;;;1.45;91.19
78431;BME280;67727;50.236;22.452;2023-12-14T04:10:36;98466.38;;;1.42;90.87
78431;BME280;67727;50.236;22.452;2023-12-14T04:13:02;98470.65;;;1.41;91.32
78431;BME280;67727;50.236;22.452;2023-12-14T04:15:29;98472.73;;;1.39;90.92
78431;BME280;67727;50.236;22.452;2023-12-14T04:17:55;98473.52;;;1.40;91.13
78431;BME280;67727;50.236;22.452;2023-12-14T04:20:21;98481.26;;;1.41;91.09
78431;BME280;67727;50.236;22.452;2023-12-14T04:22:47;98486.92;;;1.44;91.10
78431;BME280;67727;50.236;22.452;2023-12-14T04:25:14;98490.78;;;1.45;90.89
78431;BME280;67727;50.236;22.452;2023-12-14T04:27:40;98490.21;;;1.46;91.19
78431;BME280;67727;50.236;22.452;2023-12-14T04:30:06;98494.52;;;1.46;91.37
78431;BME280;67727;50.236;22.452;2023-12-14T04:32:36;98495.90;;;1.46;91.03
78431;BME280;67727;50.236;22.452;2023-12-14T04:35:03;98503.55;;;1.46;90.76
78431;BME280;67727;50.236;22.452;2023-12-14T04:37:30;98505.20;;;1.44;91.13
78431;BME280;67727;50.236;22.452;2023-12-14T04:40:00;98507.48;;;1.43;91.32
78431;BME280;67727;50.236;22.452;2023-12-14T04:42:26;98507.66;;;1.45;91.62
78431;BME280;67727;50.236;22.452;2023-12-14T04:44:52;98513.13;;;1.46;91.59
78431;BME280;67727;50.236;22.452;2023-12-14T04:47:18;98513.30;;;1.46;91.16
78431;BME280;67727;50.236;22.452;2023-12-14T04:49:44;98513.96;;;1.47;91.39
78431;BME280;67727;50.236;22.452;2023-12-14T04:52:10;98520.41;;;1.47;91.20
78431;BME280;67727;50.236;22.452;2023-12-14T04:54:36;98523.77;;;1.46;91.36
78431;BME280;67727;50.236;22.452;2023-12-14T04:57:05;98522.66;;;1.45;91.07
78431;BME280;67727;50.236;22.452;2023-12-14T04:59:32;98525.16;;;1.44;91.08
78431;BME280;67727;50.236;22.452;2023-12-14T05:01:58;98529.20;;;1.42;91.27
78431;BME280;67727;50.236;22.452;2023-12-14T05:04:24;98532.27;;;1.41;91.51
78431;BME280;67727;50.236;22.452;2023-12-14T05:06:50;98532.92;;;1.41;91.51
78431;BME280;67727;50.236;22.452;2023-12-14T05:09:16;98535.79;;;1.41;91.67
78431;BME280;67727;50.236;22.452;2023-12-14T05:11:42;98538.95;;;1.40;91.34
78431;BME280;67727;50.236;22.452;2023-12-14T05:14:09;98539.05;;;1.39;91.16
78431;BME280;67727;50.236;22.452;2023-12-14T05:16:35;98540.96;;;1.39;91.59
78431;BME280;67727;50.236;22.452;2023-12-14T05:19:01;98551.09;;;1.41;91.25
78431;BME280;67727;50.236;22.452;2023-12-14T05:21:27;98559.02;;;1.42;91.29
78431;BME280;67727;50.236;22.452;2023-12-14T05:23:53;98563.77;;;1.43;91.42
78431;BME280;67727;50.236;22.452;2023-12-14T05:26:20;98570.23;;;1.44;91.28
78431;BME280;67727;50.236;22.452;2023-12-14T05:28:46;98578.82;;;1.44;91.47
78431;BME280;67727;50.236;22.452;2023-12-14T05:31:12;98582.73;;;1.43;91.34
78431;BME280;67727;50.236;22.452;2023-12-14T05:33:39;98590.14;;;1.44;91.72
78431;BME280;67727;50.236;22.452;2023-12-14T05:36:06;98593.08;;;1.44;91.46
78431;BME280;67727;50.236;22.452;2023-12-14T05:38:40;98593.89;;;1.44;91.81
78431;BME280;67727;50.236;22.452;2023-12-14T05:41:07;98596.80;;;1.45;91.68
78431;BME280;67727;50.236;22.452;2023-12-14T05:43:33;98597.50;;;1.45;91.64
78431;BME280;67727;50.236;22.452;2023-12-14T05:45:59;98602.83;;;1.45;91.59
78431;BME280;67727;50.236;22.452;2023-12-14T05:48:25;98607.60;;;1.47;91.53
78431;BME280;67727;50.236;22.452;2023-12-14T05:50:56;98608.89;;;1.50;91.85
78431;BME280;67727;50.236;22.452;2023-12-14T05:53:22;98616.70;;;1.51;91.37
78431;BME280;67727;50.236;22.452;2023-12-14T05:55:48;98615.73;;;1.53;91.56
78431;BME280;67727;50.236;22.452;2023-12-14T05:58:15;98620.82;;;1.54;91.12
78431;BME280;67727;50.236;22.452;2023-12-14T06:00:41;98623.83;;;1.54;91.13
78431;BME280;67727;50.236;22.452;2023-12-14T06:03:07;98629.27;;;1.51;91.34
78431;BME280;67727;50.236;22.452;2023-12-14T06:05:33;98634.36;;;1.49;91.25
78431;BME280;67727;50.236;22.452;2023-12-14T06:07:59;98640.63;;;1.47;91.02
78431;BME280;67727;50.236;22.452;2023-12-14T06:10:25;98648.16;;;1.47;91.32
78431;BME280;67727;50.236;22.452;2023-12-14T06:12:51;98642.66;;;1.46;91.43
78431;BME280;67727;50.236;22.452;2023-12-14T06:15:17;98652.34;;;1.47;91.19
78431;BME280;67727;50.236;22.452;2023-12-14T06:17:43;98656.04;;;1.48;91.19
78431;BME280;67727;50.236;22.452;2023-12-14T06:20:10;98654.13;;;1.50;91.15
78431;BME280;67727;50.236;22.452;2023-12-14T06:22:36;98659.04;;;1.53;91.15
78431;BME280;67727;50.236;22.452;2023-12-14T06:25:03;98662.16;;;1.55;91.30
78431;BME280;67727;50.236;22.452;2023-12-14T06:27:29;98664.03;;;1.59;91.28
78431;BME280;67727;50.236;22.452;2023-12-14T06:29:56;98667.00;;;1.61;91.13
78431;BME280;67727;50.236;22.452;2023-12-14T06:32:22;98667.55;;;1.61;90.72
78431;BME280;67727;50.236;22.452;2023-12-14T06:34:48;98668.46;;;1.60;90.88
78431;BME280;67727;50.236;22.452;2023-12-14T06:37:14;98665.52;;;1.61;91.17
78431;BME280;67727;50.236;22.452;2023-12-14T06:39:41;98673.33;;;1.60;91.07
78431;BME280;67727;50.236;22.452;2023-12-14T06:42:07;98679.37;;;1.61;90.60
78431;BME280;67727;50.236;22.452;2023-12-14T06:44:33;98680.39;;;1.61;90.73
78431;BME280;67727;50.236;22.452;2023-12-14T06:46:59;98685.27;;;1.63;90.75
78431;BME280;67727;50.236;22.452;2023-12-14T06:49:25;98688.11;;;1.64;90.80
78431;BME280;67727;50.236;22.452;2023-12-14T06:51:52;98691.11;;;1.66;90.55
78431;BME280;67727;50.236;22.452;2023-12-14T06:54:18;98695.84;;;1.69;91.02
78431;BME280;67727;50.236;22.452;2023-12-14T06:56:45;98695.65;;;1.69;90.63
78431;BME280;67727;50.236;22.452;2023-12-14T06:59:11;98699.49;;;1.71;90.55
78431;BME280;67727;50.236;22.452;2023-12-14T07:01:37;98702.73;;;1.73;90.74
78431;BME280;67727;50.236;22.452;2023-12-14T07:04:03;98706.27;;;1.74;90.73
78431;BME280;67727;50.236;22.452;2023-12-14T07:06:29;98711.66;;;1.75;90.39
78431;BME280;67727;50.236;22.452;2023-12-14T07:08:56;98711.67;;;1.73;90.52
78431;BME280;67727;50.236;22.452;2023-12-14T07:11:22;98712.10;;;1.72;90.65
78431;BME280;67727;50.236;22.452;2023-12-14T07:13:48;98722.45;;;1.69;90.27
78431;BME280;67727;50.236;22.452;2023-12-14T07:16:15;98720.94;;;1.67;90.43
78431;BME280;67727;50.236;22.452;2023-12-14T07:18:43;98720.31;;;1.66;90.78
78431;BME280;67727;50.236;22.452;2023-12-14T07:21:10;98729.79;;;1.65;90.20
78431;BME280;67727;50.236;22.452;2023-12-14T07:23:36;98731.83;;;1.64;90.49
78431;BME280;67727;50.236;22.452;2023-12-14T07:26:03;98739.19;;;1.65;90.49
78431;BME280;67727;50.236;22.452;2023-12-14T07:28:29;98748.14;;;1.67;90.84
78431;BME280;67727;50.236;22.452;2023-12-14T07:30:55;98751.37;;;1.65;90.63
78431;BME280;67727;50.236;22.452;2023-12-14T07:33:22;98752.58;;;1.65;90.66
78431;BME280;67727;50.236;22.452;2023-12-14T07:35:48;98755.57;;;1.65;90.51
78431;BME280;67727;50.236;22.452;2023-12-14T07:38:14;98757.96;;;1.65;90.28
78431;BME280;67727;50.236;22.452;2023-12-14T07:40:40;98760.61;;;1.65;90.60
78431;BME280;67727;50.236;22.452;2023-12-14T07:43:07;98764.59;;;1.65;90.72
78431;BME280;67727;50.236;22.452;2023-12-14T07:45:34;98770.16;;;1.66;90.75
78431;BME280;67727;50.236;22.452;2023-12-14T07:48:00;98778.33;;;1.66;90.91
78431;BME280;67727;50.236;22.452;2023-12-14T07:50:26;98780.75;;;1.69;90.72
78431;BME280;67727;50.236;22.452;2023-12-14T07:52:52;98785.41;;;1.72;91.01
78431;BME280;67727;50.236;22.452;2023-12-14T07:55:19;98791.39;;;1.73;90.67
78431;BME280;67727;50.236;22.452;2023-12-14T07:57:46;98790.48;;;1.72;90.77
78431;BME280;67727;50.236;22.452;2023-12-14T08:00:12;98792.25;;;1.71;90.74
78431;BME280;67727;50.236;22.452;2023-12-14T08:02:38;98799.39;;;1.70;90.56
78431;BME280;67727;50.236;22.452;2023-12-14T08:05:05;98803.66;;;1.67;90.59
78431;BME280;67727;50.236;22.452;2023-12-14T08:07:32;98810.77;;;1.65;90.74
78431;BME280;67727;50.236;22.452;2023-12-14T08:09:59;98810.69;;;1.66;90.62
78431;BME280;67727;50.236;22.452;2023-12-14T08:12:25;98814.30;;;1.68;90.93
78431;BME280;67727;50.236;22.452;2023-12-14T08:14:51;98813.91;;;1.69;90.88
78431;BME280;67727;50.236;22.452;2023-12-14T08:17:18;98825.63;;;1.72;90.81
78431;BME280;67727;50.236;22.452;2023-12-14T08:19:44;98833.45;;;1.74;91.00
78431;BME280;67727;50.236;22.452;2023-12-14T08:22:11;98837.21;;;1.75;90.74
78431;BME280;67727;50.236;22.452;2023-12-14T08:24:38;98838.47;;;1.78;90.85
78431;BME280;67727;50.236;22.452;2023-12-14T08:27:04;98842.74;;;1.82;91.52
78431;BME280;67727;50.236;22.452;2023-12-14T08:29:31;98849.32;;;1.85;91.02
78431;BME280;67727;50.236;22.452;2023-12-14T08:31:57;98847.94;;;1.87;90.84
78431;BME280;67727;50.236;22.452;2023-12-14T08:34:25;98846.16;;;1.89;90.68
78431;BME280;67727;50.236;22.452;2023-12-14T08:36:52;98854.48;;;1.91;90.47
78431;BME280;67727;50.236;22.452;2023-12-14T08:39:18;98857.08;;;1.89;90.57
78431;BME280;67727;50.236;22.452;2023-12-14T08:41:47;98856.42;;;1.89;90.70
78431;BME280;67727;50.236;22.452;2023-12-14T08:44:15;98855.75;;;1.87;90.66
78431;BME280;67727;50.236;22.452;2023-12-14T08:46:43;98859.80;;;1.88;90.18
78431;BME280;67727;50.236;22.452;2023-12-14T08:49:09;98858.98;;;1.87;90.53
78431;BME280;67727;50.236;22.452;2023-12-14T08:51:36;98862.31;;;1.87;90.51
78431;BME280;67727;50.236;22.452;2023-12-14T08:54:02;98870.38;;;1.87;90.31
78431;BME280;67727;50.236;22.452;2023-12-14T08:56:28;98881.64;;;1.89;90.44
78431;BME280;67727;50.236;22.452;2023-12-14T08:58:54;98889.41;;;1.90;90.20
78431;BME280;67727;50.236;22.452;2023-12-14T09:01:22;98891.73;;;1.89;90.34
78431;BME280;67727;50.236;22.452;2023-12-14T09:03:48;98897.06;;;1.90;90.39
78431;BME280;67727;50.236;22.452;2023-12-14T09:06:18;98895.59;;;1.89;90.32
78431;BME280;67727;50.236;22.452;2023-12-14T09:08:45;98898.23;;;1.87;90.23
78431;BME280;67727;50.236;22.452;2023-12-14T09:11:11;98902.03;;;1.87;90.38
78431;BME280;67727;50.236;22.452;2023-12-14T09:13:38;98905.00;;;1.87;90.41
78431;BME280;67727;50.236;22.452;2023-12-14T09:16:04;98904.52;;;1.89;90.22
78431;BME280;67727;50.236;22.452;2023-12-14T09:18:31;98911.80;;;1.91;90.46
78431;BME280;67727;50.236;22.452;2023-12-14T09:20:57;98915.80;;;1.91;90.16
78431;BME280;67727;50.236;22.452;2023-12-14T09:23:23;98915.55;;;1.90;90.14
78431;BME280;67727;50.236;22.452;2023-12-14T09:25:49;98917.13;;;1.92;90.32
78431;BME280;67727;50.236;22.452;2023-12-14T09:28:15;98919.48;;;1.95;90.54
78431;BME280;67727;50.236;22.452;2023-12-14T09:30:42;98918.17;;;2.00;90.67
78431;BME280;67727;50.236;22.452;2023-12-14T09:33:08;98921.21;;;2.05;90.03
78431;BME280;67727;50.236;22.452;2023-12-14T09:35:35;98921.27;;;2.08;90.31
78431;BME280;67727;50.236;22.452;2023-12-14T09:38:06;98925.45;;;2.09;89.84
78431;BME280;67727;50.236;22.452;2023-12-14T09:40:32;98925.84;;;2.09;89.81
78431;BME280;67727;50.236;22.452;2023-12-14T09:42:58;98927.09;;;2.09;89.96
78431;BME280;67727;50.236;22.452;2023-12-14T09:45:29;98925.52;;;2.07;90.05
78431;BME280;67727;50.236;22.452;2023-12-14T09:48:00;98928.38;;;2.06;89.72
78431;BME280;67727;50.236;22.452;2023-12-14T09:50:26;98932.07;;;2.06;89.84
78431;BME280;67727;50.236;22.452;2023-12-14T09:52:52;98933.11;;;2.06;89.90
78431;BME280;67727;50.236;22.452;2023-12-14T09:55:18;98938.65;;;2.08;90.00
78431;BME280;67727;50.236;22.452;2023-12-14T09:57:45;98935.20;;;2.06;89.49
78431;BME280;67727;50.236;22.452;2023-12-14T10:00:11;98933.41;;;2.05;89.63
78431;BME280;67727;50.236;22.452;2023-12-14T10:02:40;98932.85;;;2.03;89.36
78431;BME280;67727;50.236;22.452;2023-12-14T10:05:09;98935.17;;;2.04;89.84
78431;BME280;67727;50.236;22.452;2023-12-14T10:07:42;98940.95;;;2.06;89.89
78431;BME280;67727;50.236;22.452;2023-12-14T10:10:13;98946.64;;;2.05;89.47
78431;BME280;67727;50.236;22.452;2023-12-14T10:12:51;98951.79;;;2.02;89.52
78431;BME280;67727;50.236;22.452;2023-12-14T10:15:18;98950.86;;;1.99;89.76
78431;BME280;67727;50.236;22.452;2023-12-14T10:17:45;98955.29;;;1.96;89.85
78431;BME280;67727;50.236;22.452;2023-12-14T10:20:22;98954.23;;;1.94;89.79
78431;BME280;67727;50.236;22.452;2023-12-14T10:22:49;98957.44;;;1.95;89.93
78431;BME280;67727;50.236;22.452;2023-12-14T10:25:18;98957.05;;;1.96;90.07
78431;BME280;67727;50.236;22.452;2023-12-14T10:27:46;98957.54;;;1.96;90.03
78431;BME280;67727;50.236;22.452;2023-12-14T10:30:13;98959.83;;;1.96;89.81
78431;BME280;67727;50.236;22.452;2023-12-14T10:32:41;98957.35;;;1.98;90.05
78431;BME280;67727;50.236;22.452;2023-12-14T10:35:08;98958.77;;;2.00;90.03
78431;BME280;67727;50.236;22.452;2023-12-14T10:37:37;98958.77;;;2.00;90.02
78431;BME280;67727;50.236;22.452;2023-12-14T10:40:06;98959.00;;;2.01;89.81
78431;BME280;67727;50.236;22.452;2023-12-14T10:42:35;98962.09;;;2.03;89.90
78431;BME280;67727;50.236;22.452;2023-12-14T10:45:02;98964.27;;;2.04;89.93
78431;BME280;67727;50.236;22.452;2023-12-14T10:47:29;98963.90;;;2.05;89.81
78431;BME280;67727;50.236;22.452;2023-12-14T10:49:56;98973.71;;;2.02;89.60
78431;BME280;67727;50.236;22.452;2023-12-14T10:52:26;98974.21;;;2.00;89.85
78431;BME280;67727;50.236;22.452;2023-12-14T10:54:59;98975.63;;;2.02;89.84
78431;BME280;67727;50.236;22.452;2023-12-14T10:57:28;98972.16;;;2.04;89.91
78431;BME280;67727;50.236;22.452;2023-12-14T10:59:58;98970.88;;;2.04;89.82
78431;BME280;67727;50.236;22.452;2023-12-14T11:02:25;98977.15;;;2.06;89.74
78431;BME280;67727;50.236;22.452;2023-12-14T11:04:55;98980.29;;;2.06;89.78
78431;BME280;67727;50.236;22.452;2023-12-14T11:10:10;98983.27;;;2.10;90.04
78431;BME280;67727;50.236;22.452;2023-12-14T11:12:37;98980.96;;;2.12;90.06
78431;BME280;67727;50.236;22.452;2023-12-14T11:15:07;98983.60;;;2.14;89.69
78431;BME280;67727;50.236;22.452;2023-12-14T11:17:35;98985.09;;;2.15;89.61
78431;BME280;67727;50.236;22.452;2023-12-14T11:20:24;98981.52;;;2.15;89.63
78431;BME280;67727;50.236;22.452;2023-12-14T11:22:51;98985.55;;;2.15;89.35
78431;BME280;67727;50.236;22.452;2023-12-14T11:25:23;98987.25;;;2.16;89.60
78431;BME280;67727;50.236;22.452;2023-12-14T11:27:50;98989.82;;;2.14;89.52
78431;BME280;67727;50.236;22.452;2023-12-14T11:30:16;98988.67;;;2.14;89.55
78431;BME280;67727;50.236;22.452;2023-12-14T11:32:42;98995.38;;;2.14;89.41
78431;BME280;67727;50.236;22.452;2023-12-14T11:35:08;98994.58;;;2.14;89.61
78431;BME280;67727;50.236;22.452;2023-12-14T11:37:38;98997.83;;;2.14;89.55
78431;BME280;67727;50.236;22.452;2023-12-14T11:40:07;98997.05;;;2.15;89.43
78431;BME280;67727;50.236;22.452;2023-12-14T11:42:33;98999.19;;;2.17;89.73
78431;BME280;67727;50.236;22.452;2023-12-14T11:44:59;98996.94;;;2.17;89.52
78431;BME280;67727;50.236;22.452;2023-12-14T11:47:25;98998.27;;;2.17;89.46
78431;BME280;67727;50.236;22.452;2023-12-14T11:49:52;99003.13;;;2.15;89.53
78431;BME280;67727;50.236;22.452;2023-12-14T11:52:18;99003.67;;;2.15;89.68
78431;BME280;67727;50.236;22.452;2023-12-14T11:54:44;99006.10;;;2.15;89.25
78431;BME280;67727;50.236;22.452;2023-12-14T11:57:10;99007.70;;;2.15;89.62
78431;BME280;67727;50.236;22.452;2023-12-14T11:59:36;99008.69;;;2.16;89.74
78431;BME280;67727;50.236;22.452;2023-12-14T12:02:03;99015.84;;;2.16;89.46
78431;BME280;67727;50.236;22.452;2023-12-14T12:04:30;99018.48;;;2.15;89.13
78431;BME280;67727;50.236;22.452;2023-12-14T12:07:03;99018.33;;;2.17;89.44
78431;BME280;67727;50.236;22.452;2023-12-14T12:09:38;99018.34;;;2.21;89.40
78431;BME280;67727;50.236;22.452;2023-12-14T12:12:10;99023.32;;;2.25;89.43
78431;BME280;67727;50.236;22.452;2023-12-14T12:14:37;99026.67;;;2.27;89.31
78431;BME280;67727;50.236;22.452;2023-12-14T12:17:04;99030.25;;;2.28;89.29
78431;BME280;67727;50.236;22.452;2023-12-14T12:19:32;99033.55;;;2.28;89.10
78431;BME280;67727;50.236;22.452;2023-12-14T12:21:59;99036.07;;;2.25;89.06
78431;BME280;67727;50.236;22.452;2023-12-14T12:24:25;99039.74;;;2.23;89.00
78431;BME280;67727;50.236;22.452;2023-12-14T12:26:51;99047.13;;;2.24;88.86
78431;BME280;67727;50.236;22.452;2023-12-14T12:29:17;99048.42;;;2.26;88.70
78431;BME280;67727;50.236;22.452;2023-12-14T12:31:43;99052.74;;;2.26;88.78
78431;BME280;67727;50.236;22.452;2023-12-14T12:34:11;99056.30;;;2.27;88.88
78431;BME280;67727;50.236;22.452;2023-12-14T12:36:38;99057.93;;;2.28;88.71
78431;BME280;67727;50.236;22.452;2023-12-14T12:39:04;99063.11;;;2.27;88.70
78431;BME280;67727;50.236;22.452;2023-12-14T12:41:32;99067.16;;;2.26;88.52
78431;BME280;67727;50.236;22.452;2023-12-14T12:43:59;99067.27;;;2.23;88.48
78431;BME280;67727;50.236;22.452;2023-12-14T12:46:32;99070.59;;;2.21;88.64
78431;BME280;67727;50.236;22.452;2023-12-14T12:49:00;99077.59;;;2.21;88.73
78431;BME280;67727;50.236;22.452;2023-12-14T12:51:26;99077.06;;;2.23;89.01
78431;BME280;67727;50.236;22.452;2023-12-14T12:53:54;99081.17;;;2.26;89.01
78431;BME280;67727;50.236;22.452;2023-12-14T12:56:20;99079.79;;;2.27;88.86
78431;BME280;67727;50.236;22.452;2023-12-14T12:58:46;99084.71;;;2.29;88.61
78431;BME280;67727;50.236;22.452;2023-12-14T13:01:14;99087.82;;;2.29;88.53